createdAt,value
2023-05-04T00:05:10.506Z,58.19
2023-05-04T00:15:14.128Z,59.08
2023-05-04T00:25:21.330Z,60.04
2023-05-04T00:35:25.463Z,61.13
2023-05-04T00:45:29.694Z,60.91
2023-05-04T00:55:41.661Z,59.58
2023-05-04T01:06:16.494Z,58.26
2023-05-04T01:16:22.127Z,56.81
2023-05-04T01:26:31.774Z,55.93
2023-05-04T01:36:36.469Z,55.31
2023-05-04T01:46:43.249Z,54.95
2023-05-04T01:56:48.965Z,54.59
2023-05-04T02:06:52.802Z,54.31
2023-05-04T02:16:56.579Z,54.09
2023-05-04T02:27:00.234Z,54.15
2023-05-04T02:37:07.085Z,54.73
2023-05-04T02:47:13.654Z,57.39
2023-05-04T02:57:18.250Z,56.89
2023-05-04T03:07:21.954Z,55.80
2023-05-04T03:17:27.216Z,54.81
2023-05-04T03:27:32.825Z,54.59
2023-05-04T03:37:36.581Z,55.23
2023-05-04T03:47:42.343Z,54.65
2023-05-04T03:57:46.345Z,53.50
2023-05-04T04:07:50.581Z,52.75
2023-05-04T04:17:58.375Z,51.62
2023-05-04T04:28:02.231Z,51.14
2023-05-04T04:38:07.683Z,50.25
2023-05-04T04:48:13.628Z,46.68
2023-05-04T04:58:17.200Z,45.40
2023-05-04T05:08:23.561Z,45.11
2023-05-04T05:18:27.434Z,43.92
2023-05-04T05:28:32.711Z,42.02
2023-05-04T05:38:37.350Z,40.85
2023-05-04T05:48:41.518Z,39.58
2023-05-04T05:58:46.713Z,38.02
2023-05-04T06:08:50.411Z,37.34
2023-05-04T06:18:53.979Z,37.07
2023-05-04T06:28:59.508Z,36.63
2023-05-04T06:39:03.191Z,37.48
2023-05-04T06:49:07.070Z,37.88
2023-05-04T06:59:10.821Z,37.86
2023-05-04T07:09:18.807Z,37.79
2023-05-04T07:19:22.524Z,37.52
2023-05-04T07:29:26.752Z,35.70
2023-05-04T07:39:30.537Z,34.55
2023-05-04T07:49:34.585Z,34.28
2023-05-04T07:59:38.229Z,33.02
2023-05-04T08:09:41.938Z,31.63
2023-05-04T08:19:48.330Z,30.93
2023-05-04T08:29:52.292Z,30.50
2023-05-04T08:39:57.915Z,30.52
2023-05-04T08:50:03.665Z,29.79
2023-05-04T09:00:11.325Z,28.31
2023-05-04T09:10:17.040Z,28.17
2023-05-04T09:20:21.701Z,28.00
2023-05-04T09:30:25.442Z,27.21
2023-05-04T09:40:32.910Z,26.13
2023-05-04T09:50:38.270Z,25.27
2023-05-04T10:00:42.969Z,24.34
2023-05-04T10:10:46.788Z,24.10
2023-05-04T10:21:03.043Z,24.68
2023-05-04T10:31:07.647Z,24.69
2023-05-04T10:41:19.870Z,24.06
2023-05-04T10:51:32.623Z,23.76
2023-05-04T11:01:47.624Z,23.00
2023-05-04T11:11:53.974Z,22.27
2023-05-04T11:21:58.231Z,22.55
2023-05-04T11:32:01.936Z,23.81
2023-05-04T11:42:10.768Z,23.90
2023-05-04T11:52:14.943Z,23.33
2023-05-04T12:02:19.022Z,23.12
2023-05-04T12:12:36.065Z,22.63
2023-05-04T12:22:39.785Z,22.21
2023-05-04T12:32:44.193Z,22.21
2023-05-04T12:42:48.120Z,21.65
2023-05-04T12:52:51.664Z,22.12
2023-05-04T13:02:55.208Z,22.48
2023-05-04T13:12:58.899Z,22.42
2023-05-04T13:23:04.478Z,22.17
2023-05-04T13:33:20.610Z,22.53
2023-05-04T13:43:32.109Z,22.76
2023-05-04T13:53:35.850Z,22.21
2023-05-04T14:03:39.453Z,21.99
2023-05-04T14:13:44.784Z,22.16
2023-05-04T14:23:48.498Z,22.33
2023-05-04T14:33:52.403Z,22.58
2023-05-04T14:44:00.627Z,22.95
2023-05-04T14:54:04.493Z,22.71
2023-05-04T15:04:08.181Z,22.75
2023-05-04T15:14:15.717Z,23.34
2023-05-04T15:24:19.325Z,23.56
2023-05-04T15:34:22.865Z,23.29
2023-05-04T15:44:29.866Z,23.34
2023-05-04T15:54:33.802Z,23.86
2023-05-04T16:04:38.786Z,25.50
2023-05-04T16:14:44.125Z,27.48
2023-05-04T16:24:50.293Z,28.40
2023-05-04T16:34:53.947Z,29.18
2023-05-04T16:44:58.795Z,30.20
2023-05-04T16:55:02.630Z,31.21
2023-05-04T17:05:10.627Z,32.90
2023-05-04T17:15:14.387Z,34.54
2023-05-04T17:25:20.563Z,35.29
2023-05-04T17:35:26.208Z,35.80
2023-05-04T17:45:30.440Z,35.59
2023-05-04T17:55:36.124Z,35.28
2023-05-04T18:05:43.922Z,35.68
2023-05-04T18:15:47.865Z,36.04
2023-05-04T18:25:51.562Z,36.71
2023-05-04T18:35:55.345Z,38.45
2023-05-04T18:46:10.144Z,39.93
2023-05-04T18:56:13.942Z,40.74
2023-05-04T19:06:17.714Z,42.14
2023-05-04T19:16:22.854Z,42.93
2023-05-04T19:26:28.881Z,43.01
2023-05-04T19:36:34.802Z,42.83
2023-05-04T19:46:41.704Z,43.02
2023-05-04T19:56:45.414Z,42.94
2023-05-04T20:06:49.167Z,43.12
2023-05-04T20:16:56.014Z,43.92
2023-05-04T20:27:00.412Z,43.28
2023-05-04T20:37:03.994Z,43.37
2023-05-04T20:47:10.846Z,43.70
2023-05-04T20:57:14.606Z,43.74
2023-05-04T21:07:18.460Z,44.60
2023-05-04T21:17:25.774Z,45.75
2023-05-04T21:27:33.504Z,47.70
2023-05-04T21:37:37.499Z,48.89
2023-05-04T21:47:41.109Z,49.92
2023-05-04T21:57:46.697Z,51.04
2023-05-04T22:07:50.662Z,51.49
2023-05-04T22:17:59.389Z,52.33
2023-05-04T22:28:03.867Z,53.55
2023-05-04T22:39:11.326Z,53.93
2023-05-04T22:49:17.672Z,53.57
2023-05-04T22:59:21.269Z,53.01
2023-05-04T23:09:24.921Z,52.52
2023-05-04T23:19:32.065Z,52.22
2023-05-04T23:29:35.808Z,52.20
2023-05-04T23:39:40.291Z,52.74
2023-05-04T23:49:47.407Z,52.88
2023-05-04T23:59:52.583Z,53.88
